sensor_id;sensor_type;location;lat;lon;timestamp;P1;durP1;ratioP1;P2;durP2;ratioP2
35877;SDS011;21982;49.804;24.072;2022-10-16T00:02:19;18.35;;;7.90;;
35877;SDS011;21982;49.804;24.072;2022-10-16T00:04:49;15.55;;;7.20;;
35877;SDS011;21982;49.804;24.072;2022-10-16T00:07:27;15.52;;;7.72;;
35877;SDS011;21982;49.804;24.072;2022-10-16T00:09:56;16.20;;;7.55;;
35877;SDS011;21982;49.804;24.072;2022-10-16T00:12:22;16.63;;;6.50;;
35877;SDS011;21982;49.804;24.072;2022-10-16T00:14:52;15.93;;;6.68;;
35877;SDS011;21982;49.804;24.072;2022-10-16T00:17:18;18.05;;;6.97;;
35877;SDS011;21982;49.804;24.072;2022-10-16T00:19:52;15.37;;;7.30;;
35877;SDS011;21982;49.804;24.072;2022-10-16T00:22:22;15.77;;;7.20;;
35877;SDS011;21982;49.804;24.072;2022-10-16T00:24:53;16.67;;;7.55;;
35877;SDS011;21982;49.804;24.072;2022-10-16T00:27:22;13.55;;;6.53;;
35877;SDS011;21982;49.804;24.072;2022-10-16T00:29:57;14.02;;;8.13;;
35877;SDS011;21982;49.804;24.072;2022-10-16T00:32:23;17.02;;;7.70;;
35877;SDS011;21982;49.804;24.072;2022-10-16T00:34:49;14.48;;;7.50;;
35877;SDS011;21982;49.804;24.072;2022-10-16T00:37:15;15.90;;;7.82;;
35877;SDS011;21982;49.804;24.072;2022-10-16T00:39:44;17.35;;;7.47;;
35877;SDS011;21982;49.804;24.072;2022-10-16T00:42:17;16.73;;;7.45;;
35877;SDS011;21982;49.804;24.072;2022-10-16T00:47:42;13.45;;;7.50;;
35877;SDS011;21982;49.804;24.072;2022-10-16T00:52:59;19.35;;;8.07;;
35877;SDS011;21982;49.804;24.072;2022-10-16T00:55:37;18.73;;;8.35;;
35877;SDS011;21982;49.804;24.072;2022-10-16T00:58:04;12.80;;;7.10;;
35877;SDS011;21982;49.804;24.072;2022-10-16T01:00:41;13.52;;;6.70;;
35877;SDS011;21982;49.804;24.072;2022-10-16T01:03:27;13.88;;;6.68;;
35877;SDS011;21982;49.804;24.072;2022-10-16T01:06:12;17.10;;;7.35;;
35877;SDS011;21982;49.804;24.072;2022-10-16T01:09:21;17.63;;;8.05;;
35877;SDS011;21982;49.804;24.072;2022-10-16T01:17:20;16.73;;;7.53;;
35877;SDS011;21982;49.804;24.072;2022-10-16T01:20:05;12.90;;;6.03;;
35877;SDS011;21982;49.804;24.072;2022-10-16T01:25:22;17.38;;;6.63;;
35877;SDS011;21982;49.804;24.072;2022-10-16T01:28:08;15.68;;;7.68;;
35877;SDS011;21982;49.804;24.072;2022-10-16T01:30:37;16.48;;;7.70;;
35877;SDS011;21982;49.804;24.072;2022-10-16T01:35:43;19.13;;;7.68;;
35877;SDS011;21982;49.804;24.072;2022-10-16T01:38:34;15.57;;;8.80;;
35877;SDS011;21982;49.804;24.072;2022-10-16T01:41:08;16.80;;;7.57;;
35877;SDS011;21982;49.804;24.072;2022-10-16T01:44:10;16.70;;;8.38;;
35877;SDS011;21982;49.804;24.072;2022-10-16T01:46:46;16.17;;;7.05;;
35877;SDS011;21982;49.804;24.072;2022-10-16T01:49:15;17.13;;;8.20;;
35877;SDS011;21982;49.804;24.072;2022-10-16T01:51:46;14.63;;;7.95;;
35877;SDS011;21982;49.804;24.072;2022-10-16T01:54:17;15.55;;;7.15;;
35877;SDS011;21982;49.804;24.072;2022-10-16T01:56:51;17.98;;;7.90;;
35877;SDS011;21982;49.804;24.072;2022-10-16T01:59:18;20.95;;;8.00;;
35877;SDS011;21982;49.804;24.072;2022-10-16T02:01:50;15.27;;;7.30;;
35877;SDS011;21982;49.804;24.072;2022-10-16T02:04:30;15.00;;;6.80;;
35877;SDS011;21982;49.804;24.072;2022-10-16T02:06:59;15.48;;;7.63;;
35877;SDS011;21982;49.804;24.072;2022-10-16T02:09:25;17.75;;;7.28;;
35877;SDS011;21982;49.804;24.072;2022-10-16T02:11:52;18.27;;;8.18;;
35877;SDS011;21982;49.804;24.072;2022-10-16T02:14:20;13.98;;;6.93;;
35877;SDS011;21982;49.804;24.072;2022-10-16T02:16:47;18.63;;;8.70;;
35877;SDS011;21982;49.804;24.072;2022-10-16T02:19:13;15.57;;;7.15;;
35877;SDS011;21982;49.804;24.072;2022-10-16T02:21:50;13.50;;;7.75;;
35877;SDS011;21982;49.804;24.072;2022-10-16T02:30:08;17.55;;;7.45;;
35877;SDS011;21982;49.804;24.072;2022-10-16T02:32:39;15.77;;;8.88;;
35877;SDS011;21982;49.804;24.072;2022-10-16T02:35:07;13.18;;;7.32;;
35877;SDS011;21982;49.804;24.072;2022-10-16T02:37:34;12.77;;;7.85;;
35877;SDS011;21982;49.804;24.072;2022-10-16T02:40:00;15.65;;;7.95;;
35877;SDS011;21982;49.804;24.072;2022-10-16T02:42:34;15.85;;;7.40;;
35877;SDS011;21982;49.804;24.072;2022-10-16T02:45:01;20.20;;;7.32;;
35877;SDS011;21982;49.804;24.072;2022-10-16T02:47:27;18.05;;;7.97;;
35877;SDS011;21982;49.804;24.072;2022-10-16T02:49:55;13.23;;;7.68;;
35877;SDS011;21982;49.804;24.072;2022-10-16T02:52:21;15.75;;;7.53;;
35877;SDS011;21982;49.804;24.072;2022-10-16T02:54:46;15.88;;;7.88;;
35877;SDS011;21982;49.804;24.072;2022-10-16T02:57:12;15.80;;;6.75;;
35877;SDS011;21982;49.804;24.072;2022-10-16T02:59:37;14.23;;;6.47;;
35877;SDS011;21982;49.804;24.072;2022-10-16T03:02:02;14.23;;;6.93;;
35877;SDS011;21982;49.804;24.072;2022-10-16T03:04:28;13.90;;;7.35;;
35877;SDS011;21982;49.804;24.072;2022-10-16T03:06:53;14.15;;;6.65;;
35877;SDS011;21982;49.804;24.072;2022-10-16T03:09:19;13.45;;;7.65;;
35877;SDS011;21982;49.804;24.072;2022-10-16T03:11:44;15.65;;;8.30;;
35877;SDS011;21982;49.804;24.072;2022-10-16T03:14:10;18.40;;;8.05;;
35877;SDS011;21982;49.804;24.072;2022-10-16T03:16:35;17.42;;;6.90;;
35877;SDS011;21982;49.804;24.072;2022-10-16T03:19:01;15.45;;;7.07;;
35877;SDS011;21982;49.804;24.072;2022-10-16T03:21:29;18.98;;;7.68;;
35877;SDS011;21982;49.804;24.072;2022-10-16T03:23:54;16.67;;;7.80;;
35877;SDS011;21982;49.804;24.072;2022-10-16T03:26:20;14.05;;;7.22;;
35877;SDS011;21982;49.804;24.072;2022-10-16T03:28:45;16.23;;;6.75;;
35877;SDS011;21982;49.804;24.072;2022-10-16T03:31:11;17.67;;;8.80;;
35877;SDS011;21982;49.804;24.072;2022-10-16T03:33:36;13.82;;;6.95;;
35877;SDS011;21982;49.804;24.072;2022-10-16T03:36:02;13.95;;;7.68;;
35877;SDS011;21982;49.804;24.072;2022-10-16T03:38:27;11.07;;;6.05;;
35877;SDS011;21982;49.804;24.072;2022-10-16T03:40:53;13.93;;;7.07;;
35877;SDS011;21982;49.804;24.072;2022-10-16T03:43:18;14.95;;;7.75;;
35877;SDS011;21982;49.804;24.072;2022-10-16T03:45:44;17.50;;;7.80;;
35877;SDS011;21982;49.804;24.072;2022-10-16T03:48:09;16.15;;;7.40;;
35877;SDS011;21982;49.804;24.072;2022-10-16T03:50:35;13.60;;;7.78;;
35877;SDS011;21982;49.804;24.072;2022-10-16T03:53:00;13.52;;;7.03;;
35877;SDS011;21982;49.804;24.072;2022-10-16T03:55:26;14.80;;;7.65;;
35877;SDS011;21982;49.804;24.072;2022-10-16T03:57:51;14.00;;;7.68;;
35877;SDS011;21982;49.804;24.072;2022-10-16T04:00:17;15.05;;;7.05;;
35877;SDS011;21982;49.804;24.072;2022-10-16T04:02:42;17.25;;;7.57;;
35877;SDS011;21982;49.804;24.072;2022-10-16T04:05:07;16.13;;;8.43;;
35877;SDS011;21982;49.804;24.072;2022-10-16T04:07:33;15.93;;;8.55;;
35877;SDS011;21982;49.804;24.072;2022-10-16T04:09:59;13.52;;;7.50;;
35877;SDS011;21982;49.804;24.072;2022-10-16T04:12:25;14.70;;;7.35;;
35877;SDS011;21982;49.804;24.072;2022-10-16T04:14:51;17.38;;;7.68;;
35877;SDS011;21982;49.804;24.072;2022-10-16T04:17:17;17.35;;;7.72;;
35877;SDS011;21982;49.804;24.072;2022-10-16T04:19:42;17.52;;;8.63;;
35877;SDS011;21982;49.804;24.072;2022-10-16T04:22:08;14.65;;;8.27;;
35877;SDS011;21982;49.804;24.072;2022-10-16T04:24:33;13.85;;;7.68;;
35877;SDS011;21982;49.804;24.072;2022-10-16T04:26:58;14.73;;;9.15;;
35877;SDS011;21982;49.804;24.072;2022-10-16T04:29:24;16.95;;;8.35;;
35877;SDS011;21982;49.804;24.072;2022-10-16T04:31:49;14.27;;;7.47;;
35877;SDS011;21982;49.804;24.072;2022-10-16T04:34:15;14.38;;;7.97;;
35877;SDS011;21982;49.804;24.072;2022-10-16T04:36:40;18.83;;;8.27;;
35877;SDS011;21982;49.804;24.072;2022-10-16T04:39:05;14.85;;;7.28;;
35877;SDS011;21982;49.804;24.072;2022-10-16T04:41:31;19.85;;;9.20;;
35877;SDS011;21982;49.804;24.072;2022-10-16T04:43:56;16.08;;;8.80;;
35877;SDS011;21982;49.804;24.072;2022-10-16T04:46:21;15.63;;;7.82;;
35877;SDS011;21982;49.804;24.072;2022-10-16T04:48:47;16.08;;;7.85;;
35877;SDS011;21982;49.804;24.072;2022-10-16T04:51:12;19.20;;;8.50;;
35877;SDS011;21982;49.804;24.072;2022-10-16T04:53:38;16.77;;;8.77;;
35877;SDS011;21982;49.804;24.072;2022-10-16T04:56:03;15.38;;;8.32;;
35877;SDS011;21982;49.804;24.072;2022-10-16T04:58:29;15.82;;;8.13;;
35877;SDS011;21982;49.804;24.072;2022-10-16T05:00:54;16.23;;;7.45;;
35877;SDS011;21982;49.804;24.072;2022-10-16T05:03:20;15.85;;;8.35;;
35877;SDS011;21982;49.804;24.072;2022-10-16T05:05:45;19.40;;;9.50;;
35877;SDS011;21982;49.804;24.072;2022-10-16T05:08:12;16.42;;;8.07;;
35877;SDS011;21982;49.804;24.072;2022-10-16T05:10:40;15.30;;;8.90;;
35877;SDS011;21982;49.804;24.072;2022-10-16T05:13:08;14.48;;;8.65;;
35877;SDS011;21982;49.804;24.072;2022-10-16T05:15:34;15.45;;;8.02;;
35877;SDS011;21982;49.804;24.072;2022-10-16T05:17:59;13.48;;;6.70;;
35877;SDS011;21982;49.804;24.072;2022-10-16T05:20:25;15.32;;;8.73;;
35877;SDS011;21982;49.804;24.072;2022-10-16T05:22:50;18.48;;;9.02;;
35877;SDS011;21982;49.804;24.072;2022-10-16T05:25:16;17.05;;;8.50;;
35877;SDS011;21982;49.804;24.072;2022-10-16T05:27:48;16.65;;;8.50;;
35877;SDS011;21982;49.804;24.072;2022-10-16T05:30:14;15.68;;;8.50;;
35877;SDS011;21982;49.804;24.072;2022-10-16T05:32:40;19.40;;;9.35;;
35877;SDS011;21982;49.804;24.072;2022-10-16T05:35:05;18.92;;;9.02;;
35877;SDS011;21982;49.804;24.072;2022-10-16T05:37:31;16.98;;;8.70;;
35877;SDS011;21982;49.804;24.072;2022-10-16T05:39:57;17.27;;;9.82;;
35877;SDS011;21982;49.804;24.072;2022-10-16T05:42:24;15.80;;;8.63;;
35877;SDS011;21982;49.804;24.072;2022-10-16T05:44:49;16.60;;;8.48;;
35877;SDS011;21982;49.804;24.072;2022-10-16T05:47:14;15.57;;;8.13;;
35877;SDS011;21982;49.804;24.072;2022-10-16T05:49:40;21.52;;;8.80;;
35877;SDS011;21982;49.804;24.072;2022-10-16T05:52:05;16.88;;;8.10;;
35877;SDS011;21982;49.804;24.072;2022-10-16T05:54:31;18.58;;;10.23;;
35877;SDS011;21982;49.804;24.072;2022-10-16T05:56:57;19.75;;;9.93;;
35877;SDS011;21982;49.804;24.072;2022-10-16T05:59:27;13.40;;;7.15;;
35877;SDS011;21982;49.804;24.072;2022-10-16T06:01:52;16.98;;;8.15;;
35877;SDS011;21982;49.804;24.072;2022-10-16T06:04:18;17.67;;;8.75;;
35877;SDS011;21982;49.804;24.072;2022-10-16T06:06:53;15.98;;;8.02;;
35877;SDS011;21982;49.804;24.072;2022-10-16T06:09:18;13.90;;;7.50;;
35877;SDS011;21982;49.804;24.072;2022-10-16T06:11:44;19.27;;;9.18;;
35877;SDS011;21982;49.804;24.072;2022-10-16T06:14:15;17.42;;;8.60;;
35877;SDS011;21982;49.804;24.072;2022-10-16T06:16:41;14.27;;;8.27;;
35877;SDS011;21982;49.804;24.072;2022-10-16T06:19:06;20.38;;;10.80;;
35877;SDS011;21982;49.804;24.072;2022-10-16T06:21:33;15.45;;;8.18;;
35877;SDS011;21982;49.804;24.072;2022-10-16T06:23:58;20.77;;;8.70;;
35877;SDS011;21982;49.804;24.072;2022-10-16T06:26:26;13.52;;;8.20;;
35877;SDS011;21982;49.804;24.072;2022-10-16T06:28:54;15.35;;;8.80;;
35877;SDS011;21982;49.804;24.072;2022-10-16T06:31:20;17.30;;;9.15;;
35877;SDS011;21982;49.804;24.072;2022-10-16T06:33:49;17.65;;;9.48;;
35877;SDS011;21982;49.804;24.072;2022-10-16T06:36:16;17.77;;;9.10;;
35877;SDS011;21982;49.804;24.072;2022-10-16T06:38:43;14.20;;;7.90;;
35877;SDS011;21982;49.804;24.072;2022-10-16T06:41:17;14.02;;;6.78;;
35877;SDS011;21982;49.804;24.072;2022-10-16T06:43:44;15.38;;;7.80;;
35877;SDS011;21982;49.804;24.072;2022-10-16T06:46:14;17.90;;;8.65;;
35877;SDS011;21982;49.804;24.072;2022-10-16T06:48:41;13.30;;;7.22;;
35877;SDS011;21982;49.804;24.072;2022-10-16T06:51:20;13.90;;;7.35;;
35877;SDS011;21982;49.804;24.072;2022-10-16T06:53:48;15.68;;;8.95;;
35877;SDS011;21982;49.804;24.072;2022-10-16T06:56:19;15.82;;;9.48;;
35877;SDS011;21982;49.804;24.072;2022-10-16T06:58:50;18.05;;;9.10;;
35877;SDS011;21982;49.804;24.072;2022-10-16T07:01:16;19.90;;;9.75;;
35877;SDS011;21982;49.804;24.072;2022-10-16T07:03:44;14.82;;;6.97;;
35877;SDS011;21982;49.804;24.072;2022-10-16T07:06:11;14.98;;;7.95;;
35877;SDS011;21982;49.804;24.072;2022-10-16T07:08:39;12.75;;;7.63;;
35877;SDS011;21982;49.804;24.072;2022-10-16T07:11:07;18.63;;;8.02;;
35877;SDS011;21982;49.804;24.072;2022-10-16T07:13:35;19.92;;;6.93;;
35877;SDS011;21982;49.804;24.072;2022-10-16T07:16:08;15.93;;;6.60;;
35877;SDS011;21982;49.804;24.072;2022-10-16T07:18:34;16.27;;;7.38;;
35877;SDS011;21982;49.804;24.072;2022-10-16T07:23:30;13.60;;;8.20;;
35877;SDS011;21982;49.804;24.072;2022-10-16T07:25:56;15.20;;;7.28;;
35877;SDS011;21982;49.804;24.072;2022-10-16T07:28:22;15.25;;;7.07;;
35877;SDS011;21982;49.804;24.072;2022-10-16T07:30:47;16.23;;;7.70;;
35877;SDS011;21982;49.804;24.072;2022-10-16T07:33:13;14.40;;;7.15;;
35877;SDS011;21982;49.804;24.072;2022-10-16T07:35:46;15.07;;;6.97;;
35877;SDS011;21982;49.804;24.072;2022-10-16T07:38:14;16.13;;;7.10;;
35877;SDS011;21982;49.804;24.072;2022-10-16T07:40:40;12.80;;;7.32;;
35877;SDS011;21982;49.804;24.072;2022-10-16T07:43:05;12.90;;;7.28;;
35877;SDS011;21982;49.804;24.072;2022-10-16T07:45:31;14.35;;;6.70;;
35877;SDS011;21982;49.804;24.072;2022-10-16T07:47:56;14.90;;;6.93;;
35877;SDS011;21982;49.804;24.072;2022-10-16T07:50:22;13.95;;;7.28;;
35877;SDS011;21982;49.804;24.072;2022-10-16T07:52:47;16.30;;;7.22;;
35877;SDS011;21982;49.804;24.072;2022-10-16T07:55:13;15.38;;;6.75;;
35877;SDS011;21982;49.804;24.072;2022-10-16T07:57:41;15.25;;;7.90;;
35877;SDS011;21982;49.804;24.072;2022-10-16T08:00:06;16.30;;;8.65;;
35877;SDS011;21982;49.804;24.072;2022-10-16T08:02:33;14.18;;;7.78;;
35877;SDS011;21982;49.804;24.072;2022-10-16T08:05:01;15.13;;;8.52;;
35877;SDS011;21982;49.804;24.072;2022-10-16T08:07:27;17.27;;;7.13;;
35877;SDS011;21982;49.804;24.072;2022-10-16T08:09:52;18.15;;;6.75;;
35877;SDS011;21982;49.804;24.072;2022-10-16T08:12:18;12.80;;;7.28;;
35877;SDS011;21982;49.804;24.072;2022-10-16T08:14:43;15.93;;;6.70;;
35877;SDS011;21982;49.804;24.072;2022-10-16T08:17:09;16.30;;;6.63;;
35877;SDS011;21982;49.804;24.072;2022-10-16T08:19:38;12.65;;;6.95;;
35877;SDS011;21982;49.804;24.072;2022-10-16T08:22:04;12.45;;;7.13;;
35877;SDS011;21982;49.804;24.072;2022-10-16T08:24:29;10.13;;;5.93;;
35877;SDS011;21982;49.804;24.072;2022-10-16T08:26:56;11.20;;;6.38;;
35877;SDS011;21982;49.804;24.072;2022-10-16T08:29:21;13.32;;;6.15;;
35877;SDS011;21982;49.804;24.072;2022-10-16T08:31:47;10.45;;;6.43;;
35877;SDS011;21982;49.804;24.072;2022-10-16T08:34:12;12.27;;;5.80;;
35877;SDS011;21982;49.804;24.072;2022-10-16T08:36:38;15.02;;;6.68;;
35877;SDS011;21982;49.804;24.072;2022-10-16T08:39:04;13.45;;;7.03;;
35877;SDS011;21982;49.804;24.072;2022-10-16T08:44:29;12.05;;;6.18;;
35877;SDS011;21982;49.804;24.072;2022-10-16T08:47:15;11.15;;;6.03;;
35877;SDS011;21982;49.804;24.072;2022-10-16T08:49:51;12.05;;;6.22;;
35877;SDS011;21982;49.804;24.072;2022-10-16T08:52:25;11.85;;;5.97;;
35877;SDS011;21982;49.804;24.072;2022-10-16T08:54:55;15.93;;;6.85;;
35877;SDS011;21982;49.804;24.072;2022-10-16T08:57:22;10.80;;;5.28;;
35877;SDS011;21982;49.804;24.072;2022-10-16T08:59:50;15.65;;;6.45;;
35877;SDS011;21982;49.804;24.072;2022-10-16T09:07:45;13.88;;;5.60;;
35877;SDS011;21982;49.804;24.072;2022-10-16T09:13:26;10.30;;;5.20;;
35877;SDS011;21982;49.804;24.072;2022-10-16T09:21:30;11.02;;;4.88;;
35877;SDS011;21982;49.804;24.072;2022-10-16T09:24:19;9.25;;;5.00;;
35877;SDS011;21982;49.804;24.072;2022-10-16T09:26:47;12.82;;;5.38;;
35877;SDS011;21982;49.804;24.072;2022-10-16T09:29:15;10.15;;;4.43;;
35877;SDS011;21982;49.804;24.072;2022-10-16T09:31:45;9.68;;;4.60;;
35877;SDS011;21982;49.804;24.072;2022-10-16T09:37:12;10.10;;;4.07;;
35877;SDS011;21982;49.804;24.072;2022-10-16T09:39:44;8.45;;;5.20;;
35877;SDS011;21982;49.804;24.072;2022-10-16T09:42:21;8.20;;;4.77;;
35877;SDS011;21982;49.804;24.072;2022-10-16T09:44:55;10.10;;;4.65;;
35877;SDS011;21982;49.804;24.072;2022-10-16T09:47:25;9.73;;;5.30;;
35877;SDS011;21982;49.804;24.072;2022-10-16T09:50:05;11.73;;;4.35;;
35877;SDS011;21982;49.804;24.072;2022-10-16T09:52:47;9.00;;;4.30;;
35877;SDS011;21982;49.804;24.072;2022-10-16T09:55:17;9.52;;;4.90;;
35877;SDS011;21982;49.804;24.072;2022-10-16T09:57:52;12.00;;;4.85;;
35877;SDS011;21982;49.804;24.072;2022-10-16T10:00:18;10.70;;;4.75;;
35877;SDS011;21982;49.804;24.072;2022-10-16T10:02:45;10.52;;;5.63;;
35877;SDS011;21982;49.804;24.072;2022-10-16T10:05:20;8.35;;;4.47;;
35877;SDS011;21982;49.804;24.072;2022-10-16T10:07:53;9.43;;;5.43;;
35877;SDS011;21982;49.804;24.072;2022-10-16T10:10:28;7.50;;;4.03;;
35877;SDS011;21982;49.804;24.072;2022-10-16T10:12:55;9.05;;;4.80;;
35877;SDS011;21982;49.804;24.072;2022-10-16T10:15:21;7.88;;;4.20;;
35877;SDS011;21982;49.804;24.072;2022-10-16T10:20:26;12.30;;;4.28;;
35877;SDS011;21982;49.804;24.072;2022-10-16T10:22:53;8.50;;;4.00;;
35877;SDS011;21982;49.804;24.072;2022-10-16T10:25:29;11.98;;;5.20;;
35877;SDS011;21982;49.804;24.072;2022-10-16T10:28:04;9.05;;;4.00;;
35877;SDS011;21982;49.804;24.072;2022-10-16T10:39:13;9.20;;;4.47;;
35877;SDS011;21982;49.804;24.072;2022-10-16T11:06:33;6.30;;;3.60;;
35877;SDS011;21982;49.804;24.072;2022-10-16T11:09:14;8.27;;;4.05;;
35877;SDS011;21982;49.804;24.072;2022-10-16T11:14:21;6.80;;;3.88;;
35877;SDS011;21982;49.804;24.072;2022-10-16T11:16:58;6.63;;;3.40;;
35877;SDS011;21982;49.804;24.072;2022-10-16T11:25:02;7.70;;;4.05;;
35877;SDS011;21982;49.804;24.072;2022-10-16T11:27:40;10.45;;;3.63;;
35877;SDS011;21982;49.804;24.072;2022-10-16T11:30:20;8.50;;;3.78;;
35877;SDS011;21982;49.804;24.072;2022-10-16T11:38:26;8.48;;;4.30;;
35877;SDS011;21982;49.804;24.072;2022-10-16T11:40:57;10.25;;;4.20;;
35877;SDS011;21982;49.804;24.072;2022-10-16T11:43:32;9.13;;;3.63;;
35877;SDS011;21982;49.804;24.072;2022-10-16T11:46:04;10.05;;;4.93;;
35877;SDS011;21982;49.804;24.072;2022-10-16T11:48:41;6.50;;;3.42;;
35877;SDS011;21982;49.804;24.072;2022-10-16T11:51:20;13.82;;;4.75;;
35877;SDS011;21982;49.804;24.072;2022-10-16T11:54:07;9.05;;;4.00;;
35877;SDS011;21982;49.804;24.072;2022-10-16T11:56:41;8.07;;;3.42;;
35877;SDS011;21982;49.804;24.072;2022-10-16T11:59:20;8.50;;;3.75;;
35877;SDS011;21982;49.804;24.072;2022-10-16T12:05:02;8.57;;;3.55;;
35877;SDS011;21982;49.804;24.072;2022-10-16T12:07:53;6.72;;;3.67;;
35877;SDS011;21982;49.804;24.072;2022-10-16T12:10:27;8.55;;;4.25;;
35877;SDS011;21982;49.804;24.072;2022-10-16T12:12:56;9.20;;;3.60;;
35877;SDS011;21982;49.804;24.072;2022-10-16T12:15:30;11.98;;;3.78;;
35877;SDS011;21982;49.804;24.072;2022-10-16T12:17:57;6.43;;;3.65;;
35877;SDS011;21982;49.804;24.072;2022-10-16T12:20:28;7.45;;;3.58;;
35877;SDS011;21982;49.804;24.072;2022-10-16T12:22:58;6.88;;;3.55;;
35877;SDS011;21982;49.804;24.072;2022-10-16T12:25:26;7.30;;;3.63;;
35877;SDS011;21982;49.804;24.072;2022-10-16T12:27:55;11.93;;;3.63;;
35877;SDS011;21982;49.804;24.072;2022-10-16T12:30:22;6.82;;;3.35;;
35877;SDS011;21982;49.804;24.072;2022-10-16T12:32:58;7.35;;;3.58;;
35877;SDS011;21982;49.804;24.072;2022-10-16T12:35:45;4.88;;;3.28;;
35877;SDS011;21982;49.804;24.072;2022-10-16T12:38:24;8.20;;;3.33;;
35877;SDS011;21982;49.804;24.072;2022-10-16T12:43:28;5.88;;;3.45;;
35877;SDS011;21982;49.804;24.072;2022-10-16T12:46:04;10.05;;;3.63;;
35877;SDS011;21982;49.804;24.072;2022-10-16T12:48:48;7.05;;;3.50;;
35877;SDS011;21982;49.804;24.072;2022-10-16T12:51:25;7.65;;;4.03;;
35877;SDS011;21982;49.804;24.072;2022-10-16T12:54:02;9.60;;;4.20;;
35877;SDS011;21982;49.804;24.072;2022-10-16T12:56:47;8.70;;;3.38;;
35877;SDS011;21982;49.804;24.072;2022-10-16T12:59:44;7.32;;;3.33;;
35877;SDS011;21982;49.804;24.072;2022-10-16T13:05:18;6.22;;;2.67;;
35877;SDS011;21982;49.804;24.072;2022-10-16T13:10:59;9.07;;;3.58;;
35877;SDS011;21982;49.804;24.072;2022-10-16T13:29:52;9.65;;;3.80;;
35877;SDS011;21982;49.804;24.072;2022-10-16T13:33:00;9.15;;;4.00;;
35877;SDS011;21982;49.804;24.072;2022-10-16T13:35:30;10.10;;;4.47;;
35877;SDS011;21982;49.804;24.072;2022-10-16T13:38:03;6.72;;;3.42;;
35877;SDS011;21982;49.804;24.072;2022-10-16T13:40:30;7.35;;;4.20;;
35877;SDS011;21982;49.804;24.072;2022-10-16T13:43:01;10.18;;;4.78;;
35877;SDS011;21982;49.804;24.072;2022-10-16T13:45:35;10.65;;;4.00;;
35877;SDS011;21982;49.804;24.072;2022-10-16T13:48:09;10.30;;;4.75;;
35877;SDS011;21982;49.804;24.072;2022-10-16T13:50:39;7.88;;;4.47;;
35877;SDS011;21982;49.804;24.072;2022-10-16T13:53:12;11.55;;;4.60;;
35877;SDS011;21982;49.804;24.072;2022-10-16T13:55:39;8.02;;;4.35;;
35877;SDS011;21982;49.804;24.072;2022-10-16T13:58:10;13.68;;;4.53;;
35877;SDS011;21982;49.804;24.072;2022-10-16T14:00:38;10.25;;;4.82;;
35877;SDS011;21982;49.804;24.072;2022-10-16T14:03:06;11.75;;;4.47;;
35877;SDS011;21982;49.804;24.072;2022-10-16T14:05:50;10.02;;;4.72;;
35877;SDS011;21982;49.804;24.072;2022-10-16T14:08:18;11.77;;;5.13;;
35877;SDS011;21982;49.804;24.072;2022-10-16T14:10:52;11.85;;;4.75;;
35877;SDS011;21982;49.804;24.072;2022-10-16T14:13:43;8.38;;;3.97;;
35877;SDS011;21982;49.804;24.072;2022-10-16T14:16:20;8.45;;;4.53;;
35877;SDS011;21982;49.804;24.072;2022-10-16T14:19:00;12.30;;;5.15;;
35877;SDS011;21982;49.804;24.072;2022-10-16T14:21:34;7.43;;;4.15;;
35877;SDS011;21982;49.804;24.072;2022-10-16T14:27:20;9.38;;;4.28;;
35877;SDS011;21982;49.804;24.072;2022-10-16T14:30:13;10.60;;;5.20;;
35877;SDS011;21982;49.804;24.072;2022-10-16T14:32:42;8.15;;;4.47;;
35877;SDS011;21982;49.804;24.072;2022-10-16T14:35:28;9.77;;;5.50;;
35877;SDS011;21982;49.804;24.072;2022-10-16T14:37:57;10.02;;;4.68;;
35877;SDS011;21982;49.804;24.072;2022-10-16T14:40:31;9.52;;;5.03;;
35877;SDS011;21982;49.804;24.072;2022-10-16T14:43:05;9.15;;;4.97;;
35877;SDS011;21982;49.804;24.072;2022-10-16T14:45:32;9.38;;;5.20;;
35877;SDS011;21982;49.804;24.072;2022-10-16T14:48:14;11.57;;;5.65;;
35877;SDS011;21982;49.804;24.072;2022-10-16T14:50:43;9.30;;;5.13;;
35877;SDS011;21982;49.804;24.072;2022-10-16T14:53:14;13.07;;;5.40;;
35877;SDS011;21982;49.804;24.072;2022-10-16T14:55:43;11.25;;;5.05;;
35877;SDS011;21982;49.804;24.072;2022-10-16T14:58:22;11.02;;;5.40;;
35877;SDS011;21982;49.804;24.072;2022-10-16T15:01:02;12.40;;;5.50;;
35877;SDS011;21982;49.804;24.072;2022-10-16T15:03:28;10.70;;;4.95;;
35877;SDS011;21982;49.804;24.072;2022-10-16T15:05:54;11.80;;;5.78;;
35877;SDS011;21982;49.804;24.072;2022-10-16T15:08:25;12.15;;;5.78;;
35877;SDS011;21982;49.804;24.072;2022-10-16T15:10:54;8.45;;;5.05;;
35877;SDS011;21982;49.804;24.072;2022-10-16T15:13:21;10.68;;;5.57;;
35877;SDS011;21982;49.804;24.072;2022-10-16T15:15:53;12.20;;;6.57;;
35877;SDS011;21982;49.804;24.072;2022-10-16T15:18:19;12.45;;;5.60;;
35877;SDS011;21982;49.804;24.072;2022-10-16T15:21:05;10.57;;;5.45;;
35877;SDS011;21982;49.804;24.072;2022-10-16T15:23:39;12.15;;;5.25;;
35877;SDS011;21982;49.804;24.072;2022-10-16T15:26:07;11.30;;;5.13;;
35877;SDS011;21982;49.804;24.072;2022-10-16T15:28:36;13.10;;;5.50;;
35877;SDS011;21982;49.804;24.072;2022-10-16T15:31:05;11.73;;;5.30;;
35877;SDS011;21982;49.804;24.072;2022-10-16T15:33:38;17.55;;;6.47;;
35877;SDS011;21982;49.804;24.072;2022-10-16T15:36:04;16.27;;;7.15;;
35877;SDS011;21982;49.804;24.072;2022-10-16T15:38:44;15.75;;;6.35;;
35877;SDS011;21982;49.804;24.072;2022-10-16T15:41:11;14.57;;;6.95;;
35877;SDS011;21982;49.804;24.072;2022-10-16T15:43:46;15.02;;;6.25;;
35877;SDS011;21982;49.804;24.072;2022-10-16T15:46:17;16.00;;;6.22;;
35877;SDS011;21982;49.804;24.072;2022-10-16T15:48:49;14.45;;;6.57;;
35877;SDS011;21982;49.804;24.072;2022-10-16T15:51:19;12.35;;;5.97;;
35877;SDS011;21982;49.804;24.072;2022-10-16T15:53:52;18.98;;;5.95;;
35877;SDS011;21982;49.804;24.072;2022-10-16T15:56:27;11.50;;;5.90;;
35877;SDS011;21982;49.804;24.072;2022-10-16T15:58:58;14.88;;;7.07;;
35877;SDS011;21982;49.804;24.072;2022-10-16T16:01:26;17.25;;;7.03;;
35877;SDS011;21982;49.804;24.072;2022-10-16T16:03:59;18.33;;;6.53;;
35877;SDS011;21982;49.804;24.072;2022-10-16T16:06:25;12.45;;;6.70;;
35877;SDS011;21982;49.804;24.072;2022-10-16T16:08:51;19.33;;;6.18;;
35877;SDS011;21982;49.804;24.072;2022-10-16T16:11:19;10.77;;;6.05;;
35877;SDS011;21982;49.804;24.072;2022-10-16T16:13:45;12.18;;;5.95;;
35877;SDS011;21982;49.804;24.072;2022-10-16T16:16:25;13.00;;;6.60;;
35877;SDS011;21982;49.804;24.072;2022-10-16T16:18:55;16.05;;;7.93;;
35877;SDS011;21982;49.804;24.072;2022-10-16T16:21:24;14.88;;;7.45;;
35877;SDS011;21982;49.804;24.072;2022-10-16T16:24:02;16.73;;;9.07;;
35877;SDS011;21982;49.804;24.072;2022-10-16T16:26:44;15.13;;;7.20;;
35877;SDS011;21982;49.804;24.072;2022-10-16T16:29:16;18.17;;;7.05;;
35877;SDS011;21982;49.804;24.072;2022-10-16T16:31:42;19.40;;;8.38;;
35877;SDS011;21982;49.804;24.072;2022-10-16T16:34:12;15.65;;;7.72;;
35877;SDS011;21982;49.804;24.072;2022-10-16T16:36:48;13.90;;;7.25;;
35877;SDS011;21982;49.804;24.072;2022-10-16T16:39:15;16.65;;;7.53;;
35877;SDS011;21982;49.804;24.072;2022-10-16T16:41:41;17.13;;;7.80;;
35877;SDS011;21982;49.804;24.072;2022-10-16T16:44:09;16.27;;;9.07;;
35877;SDS011;21982;49.804;24.072;2022-10-16T16:46:37;15.85;;;7.70;;
35877;SDS011;21982;49.804;24.072;2022-10-16T16:49:09;19.00;;;8.00;;